Time;durP1;ratioP1;P1;durP2;ratioP2;P2;SDS_P1;SDS_P2;PMS_P1;PMS_P2;Temp;Humidity;BMP_temperature;BMP_pressure;BME280_temperature;BME280_humidity;BME280_pressure;Samples;Min_cycle;Max_cycle;Signal;HPM_P1;HPM_P2
2023/09/23 00:01:44;;;;;;;1.90;1.80;;;12.50;99.90;;;;;;4988034;28;20045;-78
2023/09/23 00:04:09;;;;;;;1.98;1.77;;;12.50;99.90;;;;;;4971082;28;20045;-78
2023/09/23 00:06:35;;;;;;;1.80;1.70;;;12.50;99.90;;;;;;4988449;28;20497;-78
2023/09/23 00:09:02;;;;;;;2.63;1.73;;;12.50;99.90;;;;;;4988510;28;20046;-78
2023/09/23 00:11:28;;;;;;;2.92;1.90;;;12.50;99.90;;;;;;4988129;28;20140;-78
2023/09/23 00:13:54;;;;;;;1.88;1.67;;;12.50;99.90;;;;;;4971856;28;20047;-78
2023/09/23 00:16:21;;;;;;;3.03;1.95;;;12.50;99.90;;;;;;4986341;28;20054;-78
2023/09/23 00:18:47;;;;;;;2.22;1.80;;;12.40;99.90;;;;;;4988036;28;20050;-78
2023/09/23 00:21:12;;;;;;;2.40;1.75;;;12.40;99.90;;;;;;4976484;28;20050;-78
2023/09/23 00:23:39;;;;;;;2.15;1.70;;;12.40;99.90;;;;;;4988230;28;20039;-78
2023/09/23 00:26:06;;;;;;;2.30;1.90;;;12.40;99.90;;;;;;4969771;28;20149;-79
2023/09/23 00:28:32;;;;;;;2.20;2.00;;;12.40;99.90;;;;;;4987332;28;20101;-78
2023/09/23 00:31:10;;;;;;;3.10;2.08;;;12.40;99.90;;;;;;4987596;28;20782;-78
2023/09/23 00:33:37;;;;;;;2.63;2.20;;;12.40;99.90;;;;;;4987568;28;20101;-78
2023/09/23 00:36:07;;;;;;;4.63;2.60;;;12.40;99.90;;;;;;4970135;28;20064;-78
2023/09/23 00:38:33;;;;;;;3.35;2.72;;;12.40;99.90;;;;;;4970455;28;20054;-78
2023/09/23 00:40:58;;;;;;;2.70;2.50;;;12.60;99.90;;;;;;4986913;28;20046;-78
2023/09/23 00:43:24;;;;;;;3.30;2.83;;;12.40;99.90;;;;;;4969380;28;20048;-77
2023/09/23 00:45:54;;;;;;;3.72;3.10;;;12.40;99.90;;;;;;4987598;28;20049;-79
2023/09/23 00:48:21;;;;;;;4.68;3.40;;;12.40;99.90;;;;;;4985931;28;20141;-79
2023/09/23 00:50:48;;;;;;;4.00;3.10;;;12.40;99.90;;;;;;4983989;28;20406;-79
2023/09/23 00:53:14;;;;;;;3.80;3.50;;;12.40;99.90;;;;;;4976263;28;20051;-79
2023/09/23 00:55:43;;;;;;;3.80;3.30;;;12.40;99.90;;;;;;4983206;28;20049;-79
2023/09/23 00:58:16;;;;;;;3.65;2.70;;;12.40;99.90;;;;;;4974897;28;20480;-79
2023/09/23 01:00:48;;;;;;;;;;;12.40;99.90;;;;;;4987837;28;20038;-79
2023/09/23 01:03:15;;;;;;;3.30;3.00;;;12.40;99.90;;;;;;4970400;28;19969;-79
2023/09/23 01:05:41;;;;;;;3.17;2.90;;;12.40;99.90;;;;;;4987173;28;20173;-79
2023/09/23 01:08:11;;;;;;;3.95;2.67;;;12.40;99.90;;;;;;4970254;28;20046;-79
2023/09/23 01:10:37;;;;;;;2.45;2.25;;;12.30;99.90;;;;;;4990725;28;20054;-79
2023/09/23 01:13:12;;;;;;;3.95;2.58;;;12.30;99.90;;;;;;4991079;28;20046;-79
2023/09/23 01:15:40;;;;;;;2.55;2.20;;;12.30;99.90;;;;;;4970552;28;20065;-79
2023/09/23 01:18:21;;;;;;;3.08;2.20;;;12.30;99.90;;;;;;4989095;28;20066;-79
2023/09/23 01:20:49;;;;;;;2.05;1.73;;;12.30;99.90;;;;;;4990445;28;20140;-80
2023/09/23 01:23:15;;;;;;;3.22;2.10;;;12.20;99.90;;;;;;4991270;28;20123;-79
2023/09/23 01:25:41;;;;;;;2.30;2.00;;;12.30;99.90;;;;;;4990817;28;20485;-79
2023/09/23 01:28:13;;;;;;;1.90;1.70;;;12.30;99.90;;;;;;4990776;28;20038;-80
2023/09/23 01:30:40;;;;;;;1.58;1.38;;;12.20;99.90;;;;;;4990908;28;20050;-81
2023/09/23 01:33:07;;;;;;;1.80;1.45;;;12.30;99.90;;;;;;4990565;28;20057;-80
2023/09/23 01:35:33;;;;;;;2.50;2.00;;;12.20;99.90;;;;;;4990884;28;20446;-79
2023/09/23 01:38:04;;;;;;;3.47;1.52;;;12.20;99.90;;;;;;4990347;28;20039;-80
2023/09/23 01:40:36;;;;;;;2.60;1.35;;;12.20;99.90;;;;;;4990167;28;20054;-79
2023/09/23 01:43:02;;;;;;;1.70;1.45;;;12.20;99.90;;;;;;4990660;28;20062;-79
2023/09/23 01:45:28;;;;;;;1.60;1.35;;;12.20;99.90;;;;;;4990718;28;20046;-79
2023/09/23 01:47:56;;;;;;;1.73;1.30;;;12.20;99.90;;;;;;4990203;28;20050;-78
2023/09/23 01:50:23;;;;;;;1.58;1.38;;;12.20;99.90;;;;;;4973007;28;20046;-78
2023/09/23 01:52:49;;;;;;;2.90;1.50;;;12.20;99.90;;;;;;4989425;28;20046;-78
2023/09/23 01:55:16;;;;;;;2.88;2.08;;;12.20;99.90;;;;;;4989353;28;20470;-77
2023/09/23 01:57:42;;;;;;;2.22;2.03;;;12.20;99.90;;;;;;4988651;28;20045;-78
2023/09/23 02:00:14;;;;;;;3.80;2.50;;;12.30;99.90;;;;;;4989805;28;20046;-78
2023/09/23 02:02:41;;;;;;;3.58;2.63;;;12.30;99.90;;;;;;4971334;28;20574;-77
2023/09/23 02:05:08;;;;;;;4.30;3.22;;;12.30;99.90;;;;;;4979616;28;20058;-78
2023/09/23 02:07:34;;;;;;;4.32;3.28;;;12.30;99.90;;;;;;4989193;28;20053;-78
2023/09/23 02:10:00;;;;;;;4.13;3.05;;;12.30;99.90;;;;;;4970973;28;20042;-78
2023/09/23 02:12:27;;;;;;;3.65;3.33;;;12.60;99.90;;;;;;4988614;28;20374;-78
2023/09/23 02:14:53;;;;;;;4.65;3.58;;;12.20;99.90;;;;;;4989290;28;20054;-79
2023/09/23 02:17:20;;;;;;;5.47;3.90;;;12.30;99.90;;;;;;4971335;28;20058;-79
2023/09/23 02:19:50;;;;;;;4.60;4.03;;;12.20;99.90;;;;;;4987966;28;20046;-79
2023/09/23 02:22:18;;;;;;;4.18;3.58;;;12.20;99.90;;;;;;4955764;28;20567;-79
2023/09/23 02:24:44;;;;;;;5.38;4.13;;;12.20;99.90;;;;;;4988550;28;20047;-79
2023/09/23 02:27:10;;;;;;;3.78;3.47;;;12.20;99.90;;;;;;4988935;28;20042;-79
2023/09/23 02:29:36;;;;;;;4.38;3.97;;;12.20;99.90;;;;;;4989645;28;20061;-79
2023/09/23 02:32:01;;;;;;;4.03;3.63;;;12.20;99.90;;;;;;4988540;28;20807;-79
2023/09/23 02:34:30;;;;;;;4.15;3.75;;;12.10;99.90;;;;;;4990452;28;20042;-79
2023/09/23 02:36:56;;;;;;;5.38;4.40;;;12.10;99.90;;;;;;4971717;28;20530;-79
2023/09/23 02:39:22;;;;;;;5.22;4.72;;;12.00;99.90;;;;;;4971477;28;20125;-79
2023/09/23 02:41:49;;;;;;;5.57;4.43;;;12.00;99.90;;;;;;4987662;28;20399;-79
2023/09/23 02:44:19;;;;;;;5.68;4.57;;;12.40;99.90;;;;;;4972377;28;20566;-79
2023/09/23 02:46:54;;;;;;;5.13;4.63;;;11.80;99.90;;;;;;4969515;28;20073;-79
2023/09/23 02:49:20;;;;;;;5.15;4.45;;;11.80;99.90;;;;;;4976737;28;20047;-79
2023/09/23 02:51:46;;;;;;;4.90;4.40;;;11.70;99.90;;;;;;4989872;28;20030;-78
2023/09/23 02:54:15;;;;;;;5.25;4.75;;;11.70;99.90;;;;;;4999819;28;20506;-79
2023/09/23 02:56:41;;;;;;;5.07;4.57;;;11.60;99.90;;;;;;4987902;28;20045;-79
2023/09/23 02:59:21;;;;;;;5.05;4.63;;;11.60;99.90;;;;;;4987935;28;20081;-79
2023/09/23 03:01:53;;;;;;;5.47;4.95;;;11.50;99.90;;;;;;4988664;28;20042;-79
2023/09/23 03:04:25;;;;;;;7.18;5.43;;;11.50;99.90;;;;;;4972081;28;20046;-79
2023/09/23 03:06:56;;;;;;;;;;;11.40;99.90;;;;;;4972199;28;20414;-78
2023/09/23 03:09:24;;;;;;;6.45;5.60;;;11.40;99.90;;;;;;4988952;28;19925;-78
2023/09/23 03:11:55;;;;;;;5.93;5.15;;;11.30;99.90;;;;;;4988127;28;20088;-79
2023/09/23 03:14:30;;;;;;;6.30;5.63;;;11.30;99.90;;;;;;4989071;28;20038;-79
2023/09/23 03:16:57;;;;;;;5.80;5.13;;;11.30;99.90;;;;;;4987219;28;20161;-78
2023/09/23 03:19:26;;;;;;;7.57;5.88;;;11.20;99.90;;;;;;4987346;28;20042;-78
2023/09/23 03:21:54;;;;;;;6.90;5.43;;;11.20;99.90;;;;;;4988909;28;20053;-79
2023/09/23 03:24:20;;;;;;;6.60;5.35;;;11.20;99.90;;;;;;4969982;28;20046;-78
2023/09/23 03:26:46;;;;;;;6.03;5.43;;;11.20;99.90;;;;;;4987714;28;20045;-79
2023/09/23 03:29:13;;;;;;;6.05;5.50;;;11.10;99.90;;;;;;4988180;28;20054;-78
2023/09/23 03:31:39;;;;;;;6.63;5.78;;;11.10;99.90;;;;;;4982290;28;20129;-78
2023/09/23 03:34:05;;;;;;;6.32;5.53;;;11.00;99.90;;;;;;4951689;28;20134;-79
2023/09/23 03:36:31;;;;;;;6.93;5.72;;;11.00;99.90;;;;;;4979682;28;20129;-78
2023/09/23 03:39:00;;;;;;;7.07;5.78;;;11.00;99.90;;;;;;4969913;28;20054;-78
2023/09/23 03:41:27;;;;;;;8.43;6.30;;;10.90;99.90;;;;;;4986330;28;20038;-77
2023/09/23 03:43:53;;;;;;;6.72;5.78;;;10.90;99.90;;;;;;4973346;28;20117;-78
2023/09/23 03:46:19;;;;;;;7.57;6.40;;;10.90;99.90;;;;;;4987111;28;20141;-78
2023/09/23 03:48:44;;;;;;;7.75;6.25;;;10.90;99.90;;;;;;4978009;28;20057;-77
2023/09/23 03:51:10;;;;;;;7.35;5.90;;;10.80;99.90;;;;;;4987161;28;20513;-78
2023/09/23 03:53:36;;;;;;;6.82;5.60;;;10.80;99.90;;;;;;4988495;28;20675;-78
2023/09/23 03:56:03;;;;;;;7.10;5.95;;;10.70;99.90;;;;;;4988059;28;20553;-78
2023/09/23 03:58:30;;;;;;;6.35;5.65;;;10.70;99.90;;;;;;4988505;28;20125;-79
2023/09/23 04:01:00;;;;;;;8.20;6.10;;;10.70;99.90;;;;;;4988204;28;20410;-78
2023/09/23 04:03:25;;;;;;;7.65;5.95;;;10.70;99.90;;;;;;4988498;28;20089;-79
2023/09/23 04:05:57;;;;;;;8.05;7.15;;;10.60;99.90;;;;;;4971005;28;20046;-79
2023/09/23 04:08:23;;;;;;;7.28;6.55;;;10.70;99.90;;;;;;4988653;28;20046;-78
2023/09/23 04:10:49;;;;;;;9.10;7.00;;;10.70;99.90;;;;;;4988870;28;20042;-78
2023/09/23 04:13:15;;;;;;;8.05;6.68;;;10.70;99.90;;;;;;4971496;28;20050;-78
2023/09/23 04:15:41;;;;;;;9.45;7.30;;;10.70;99.90;;;;;;4971388;28;20054;-78
2023/09/23 04:18:09;;;;;;;8.82;7.43;;;10.70;99.90;;;;;;4988810;28;20774;-79
2023/09/23 04:20:36;;;;;;;8.88;7.97;;;10.70;99.90;;;;;;4972027;28;20074;-79
2023/09/23 04:23:02;;;;;;;9.52;7.68;;;10.80;99.90;;;;;;4971575;28;20057;-78
2023/09/23 04:25:28;;;;;;;11.20;8.57;;;10.80;99.90;;;;;;4969653;28;20844;-79
2023/09/23 04:27:54;;;;;;;8.98;7.55;;;10.90;99.90;;;;;;4968745;28;20809;-78
2023/09/23 04:30:22;;;;;;;9.50;8.48;;;10.80;99.90;;;;;;4951482;28;20051;-79
2023/09/23 04:32:47;;;;;;;9.30;8.40;;;10.90;99.90;;;;;;4990467;28;20049;-78
2023/09/23 04:35:16;;;;;;;9.45;8.45;;;10.90;99.90;;;;;;5007754;28;20049;-78
2023/09/23 04:37:42;;;;;;;11.77;8.98;;;10.90;99.90;;;;;;5007582;28;20042;-78
2023/09/23 04:40:10;;;;;;;10.63;9.23;;;10.90;99.90;;;;;;4987144;28;20054;-78
2023/09/23 04:42:40;;;;;;;11.15;9.05;;;10.80;99.90;;;;;;4972149;28;20050;-78
2023/09/23 04:45:10;;;;;;;10.30;9.23;;;10.80;99.90;;;;;;4974077;28;20061;-78
2023/09/23 04:47:37;;;;;;;12.65;9.63;;;10.80;99.90;;;;;;4991689;28;20060;-78
2023/09/23 04:50:04;;;;;;;10.95;9.07;;;10.80;99.90;;;;;;4991488;28;20042;-79
2023/09/23 04:52:34;;;;;;;11.63;9.65;;;10.70;99.90;;;;;;4992005;28;20181;-78
2023/09/23 04:55:00;;;;;;;12.63;10.07;;;10.70;99.90;;;;;;4991188;28;20042;-79
2023/09/23 04:57:26;;;;;;;11.60;9.73;;;10.70;99.90;;;;;;4973871;28;20490;-78
2023/09/23 04:59:57;;;;;;;11.82;9.73;;;10.60;99.90;;;;;;4991084;28;20129;-78
2023/09/23 05:02:23;;;;;;;10.95;9.48;;;10.60;99.90;;;;;;4991311;28;20054;-77
2023/09/23 05:04:53;;;;;;;14.07;11.10;;;10.60;99.90;;;;;;4991317;28;20491;-78
2023/09/23 05:07:19;;;;;;;12.52;10.30;;;10.60;99.90;;;;;;4991757;28;20050;-78
2023/09/23 05:09:45;;;;;;;13.25;11.00;;;10.60;99.90;;;;;;4957169;28;20074;-77
2023/09/23 05:12:11;;;;;;;14.00;11.52;;;10.60;99.90;;;;;;4992141;28;20081;-78
2023/09/23 05:14:37;;;;;;;13.10;11.60;;;10.60;99.90;;;;;;4990548;28;20057;-77
2023/09/23 05:17:05;;;;;;;13.70;11.68;;;10.60;99.90;;;;;;4990966;28;20086;-77
2023/09/23 05:19:32;;;;;;;17.38;12.40;;;10.70;99.90;;;;;;4990863;28;20054;-77
2023/09/23 05:21:58;;;;;;;17.27;12.73;;;10.70;99.90;;;;;;4990772;28;20046;-77
2023/09/23 05:24:26;;;;;;;16.45;11.95;;;10.70;99.90;;;;;;4987838;28;20135;-77
2023/09/23 05:26:54;;;;;;;17.55;13.20;;;10.70;99.90;;;;;;4988862;28;20077;-77
2023/09/23 05:29:20;;;;;;;18.30;14.57;;;10.80;99.90;;;;;;4990905;28;20529;-78
2023/09/23 05:31:46;;;;;;;19.23;14.70;;;10.80;99.90;;;;;;4971806;28;20149;-77
2023/09/23 05:34:12;;;;;;;22.15;15.20;;;10.90;99.90;;;;;;4990290;28;20042;-78
2023/09/23 05:36:37;;;;;;;23.02;16.42;;;10.90;99.90;;;;;;4988770;28;20042;-79
2023/09/23 05:39:14;;;;;;;22.27;16.65;;;10.90;99.90;;;;;;4975385;28;20077;-78
2023/09/23 05:41:40;;;;;;;21.05;16.45;;;11.00;99.90;;;;;;4983223;28;20125;-78
2023/09/23 05:44:07;;;;;;;23.95;17.45;;;11.00;99.90;;;;;;4973530;28;20053;-78
2023/09/23 05:46:35;;;;;;;25.30;18.38;;;11.10;99.90;;;;;;4973055;28;20629;-76
2023/09/23 05:49:02;;;;;;;26.52;19.13;;;11.10;99.90;;;;;;4990860;28;20497;-76
2023/09/23 05:51:27;;;;;;;26.55;18.45;;;11.10;99.90;;;;;;4989963;28;20050;-77
2023/09/23 05:53:53;;;;;;;28.20;20.75;;;11.10;99.90;;;;;;4989934;28;20580;-76
2023/09/23 05:56:19;;;;;;;30.52;19.83;;;11.20;99.90;;;;;;4989882;28;20133;-77
2023/09/23 05:58:46;;;;;;;25.42;19.20;;;11.20;99.90;;;;;;4990412;28;20057;-76
2023/09/23 06:01:13;;;;;;;27.38;20.17;;;11.20;99.90;;;;;;4972961;28;20092;-77
2023/09/23 06:03:41;;;;;;;26.58;20.55;;;11.20;99.90;;;;;;4956275;28;20039;-77
2023/09/23 06:06:06;;;;;;;27.98;20.23;;;11.20;99.90;;;;;;4972662;28;20494;-77
2023/09/23 06:08:32;;;;;;;28.48;20.30;;;11.20;99.90;;;;;;4990446;28;20070;-78
2023/09/23 06:11:05;;;;;;;27.63;20.25;;;11.30;99.90;;;;;;4988669;28;20410;-77
2023/09/23 06:13:34;;;;;;;29.27;21.17;;;11.30;99.90;;;;;;4987532;28;20050;-77
2023/09/23 06:16:04;;;;;;;28.88;21.77;;;11.30;99.90;;;;;;4986223;28;20054;-77
2023/09/23 06:18:30;;;;;;;31.75;21.77;;;11.30;99.90;;;;;;4956430;28;20062;-77
2023/09/23 06:21:00;;;;;;;27.25;20.55;;;11.30;99.90;;;;;;4972812;28;20046;-77
2023/09/23 06:23:26;;;;;;;27.45;21.42;;;11.30;99.90;;;;;;4972900;28;20122;-77
2023/09/23 06:25:55;;;;;;;24.20;19.00;;;11.40;99.90;;;;;;4989117;28;20079;-78
2023/09/23 06:28:22;;;;;;;28.05;21.63;;;11.40;99.90;;;;;;4971559;28;20418;-79
2023/09/23 06:30:48;;;;;;;31.27;21.60;;;11.40;99.90;;;;;;4987196;28;20053;-79
2023/09/23 06:33:16;;;;;;;26.95;20.73;;;11.40;99.90;;;;;;4989266;28;20050;-79
2023/09/23 06:35:41;;;;;;;29.77;21.40;;;11.50;99.90;;;;;;4988652;28;20045;-79
2023/09/23 06:38:07;;;;;;;29.63;21.55;;;11.50;99.90;;;;;;4986113;28;20042;-79
2023/09/23 06:40:33;;;;;;;24.15;20.13;;;11.50;99.90;;;;;;4988513;28;20050;-78
2023/09/23 06:42:58;;;;;;;28.38;20.80;;;11.60;99.90;;;;;;4988641;28;20058;-79
2023/09/23 06:45:24;;;;;;;29.55;21.85;;;11.60;99.90;;;;;;4988079;28;20137;-79
2023/09/23 06:47:52;;;;;;;27.02;20.38;;;11.70;99.90;;;;;;4955215;28;20113;-80
2023/09/23 06:50:17;;;;;;;31.05;20.98;;;11.80;99.90;;;;;;4971535;28;20042;-79
2023/09/23 06:52:43;;;;;;;27.58;21.27;;;11.80;99.90;;;;;;4974032;28;20569;-79
2023/09/23 06:55:10;;;;;;;26.77;20.48;;;11.90;99.90;;;;;;4987329;28;20813;-79
2023/09/23 06:57:35;;;;;;;27.05;21.48;;;11.90;99.90;;;;;;4985966;28;20050;-80
2023/09/23 07:00:03;;;;;;;28.42;20.92;;;12.00;99.90;;;;;;4971790;28;20057;-79
2023/09/23 07:02:28;;;;;;;28.45;21.15;;;12.60;99.90;;;;;;4971656;28;20080;-80
2023/09/23 07:04:54;;;;;;;25.85;20.77;;;12.20;99.90;;;;;;4988484;28;20046;-80
2023/09/23 07:07:20;;;;;;;26.73;20.27;;;12.30;99.90;;;;;;4987510;28;20121;-79
2023/09/23 07:09:45;;;;;;;28.40;20.50;;;12.40;99.90;;;;;;4988807;28;20391;-79
2023/09/23 07:12:13;;;;;;;26.67;20.40;;;12.60;99.90;;;;;;4989408;28;20105;-79
2023/09/23 07:14:39;;;;;;;22.38;18.95;;;12.90;99.90;;;;;;4989407;28;20050;-79
2023/09/23 07:17:06;;;;;;;27.17;19.25;;;12.80;99.90;;;;;;4971337;28;20061;-78
2023/09/23 07:19:32;;;;;;;23.25;18.73;;;12.90;99.90;;;;;;4986969;28;20078;-79
2023/09/23 07:21:58;;;;;;;21.02;18.38;;;12.90;99.90;;;;;;4970474;28;20105;-77
2023/09/23 07:24:27;;;;;;;22.52;18.10;;;12.90;99.90;;;;;;4969214;28;20042;-82
2023/09/23 07:26:57;;;;;;;22.73;19.15;;;12.90;99.90;;;;;;4952547;28;20047;-78
2023/09/23 07:29:23;;;;;;;22.90;19.05;;;12.90;99.90;;;;;;4969694;28;20513;-78
2023/09/23 07:31:48;;;;;;;21.85;18.30;;;13.00;99.90;;;;;;4975338;28;20042;-79
2023/09/23 07:34:14;;;;;;;22.15;17.50;;;13.00;99.90;;;;;;4988911;28;20072;-78
2023/09/23 07:36:40;;;;;;;22.08;18.58;;;13.10;99.90;;;;;;4986175;28;20077;-78
2023/09/23 07:39:05;;;;;;;19.83;17.58;;;13.20;99.90;;;;;;4989025;28;20054;-78
2023/09/23 07:41:31;;;;;;;19.45;16.88;;;13.30;99.90;;;;;;4990721;28;20619;-79
2023/09/23 07:43:57;;;;;;;20.40;17.00;;;13.30;99.90;;;;;;4989099;28;20100;-78
2023/09/23 07:46:22;;;;;;;21.00;17.88;;;13.40;99.90;;;;;;4987621;28;20421;-80
2023/09/23 07:48:48;;;;;;;19.88;17.80;;;13.50;99.90;;;;;;4988410;28;20035;-78
2023/09/23 07:51:14;;;;;;;19.30;16.77;;;13.90;99.90;;;;;;4988715;28;20132;-79
2023/09/23 07:53:39;;;;;;;21.08;16.73;;;13.60;99.90;;;;;;4970577;28;20096;-80
2023/09/23 07:56:05;;;;;;;21.20;16.67;;;13.70;99.90;;;;;;4987759;28;20050;-80
2023/09/23 07:58:31;;;;;;;18.92;16.10;;;13.80;99.90;;;;;;4988172;28;20057;-80
2023/09/23 08:00:57;;;;;;;18.75;15.95;;;13.90;99.90;;;;;;4987512;28;20050;-79
2023/09/23 08:03:26;;;;;;;17.80;15.80;;;14.40;99.90;;;;;;4988060;28;20104;-79
2023/09/23 08:05:53;;;;;;;16.98;15.18;;;14.30;99.90;;;;;;4970787;28;20050;-79
2023/09/23 08:08:19;;;;;;;17.70;15.80;;;14.20;99.90;;;;;;4988254;28;20053;-78
2023/09/23 08:10:44;;;;;;;16.27;14.55;;;14.30;99.90;;;;;;4983062;28;20050;-81
2023/09/23 08:13:10;;;;;;;16.33;14.57;;;14.70;99.90;;;;;;4969911;28;20402;-78
2023/09/23 08:15:38;;;;;;;16.08;14.40;;;14.50;99.90;;;;;;4968775;28;20128;-80
2023/09/23 08:18:03;;;;;;;15.57;13.90;;;14.50;99.90;;;;;;4969405;28;20093;-77
2023/09/23 08:20:29;;;;;;;16.08;14.23;;;14.50;99.90;;;;;;4986873;28;20550;-79
2023/09/23 08:22:55;;;;;;;18.95;14.13;;;14.50;99.90;;;;;;4987211;28;20046;-77
2023/09/23 08:25:21;;;;;;;17.15;14.32;;;14.40;99.90;;;;;;4982445;28;20046;-79
2023/09/23 08:27:48;;;;;;;17.50;14.60;;;14.50;99.90;;;;;;4982618;28;20088;-77
2023/09/23 08:30:16;;;;;;;15.23;13.25;;;14.50;99.90;;;;;;4986755;28;20038;-78
2023/09/23 08:32:42;;;;;;;16.13;13.32;;;14.60;99.90;;;;;;4984124;28;20082;-78
2023/09/23 08:35:08;;;;;;;15.65;12.93;;;14.60;99.90;;;;;;4987763;28;20089;-78
2023/09/23 08:37:36;;;;;;;18.15;12.98;;;14.60;99.90;;;;;;4987632;28;20110;-77
2023/09/23 08:40:10;;;;;;;14.93;12.35;;;14.80;99.90;;;;;;4969728;28;20146;-77
2023/09/23 08:42:37;;;;;;;14.20;12.52;;;15.00;99.90;;;;;;4986313;28;20046;-78
2023/09/23 08:45:10;;;;;;;12.55;11.35;;;15.10;99.90;;;;;;4976446;28;20055;-78
2023/09/23 08:47:37;;;;;;;13.07;11.70;;;15.20;99.90;;;;;;4982479;28;20137;-78
2023/09/23 08:50:10;;;;;;;14.65;12.15;;;15.40;99.90;;;;;;4985271;28;20056;-78
2023/09/23 08:52:36;;;;;;;14.43;12.25;;;15.40;99.90;;;;;;4988159;28;20101;-77
2023/09/23 08:55:04;;;;;;;12.52;11.32;;;15.50;99.90;;;;;;4987255;28;20125;-79
2023/09/23 08:57:30;;;;;;;11.85;10.63;;;15.50;99.90;;;;;;4988034;28;20072;-78
2023/09/23 08:59:57;;;;;;;13.25;11.32;;;15.50;99.90;;;;;;4987190;28;20162;-77
2023/09/23 09:02:25;;;;;;;13.50;11.23;;;15.50;99.90;;;;;;4970274;28;20042;-78
2023/09/23 09:04:55;;;;;;;12.15;10.90;;;15.60;99.90;;;;;;4970312;28;20050;-78
2023/09/23 09:07:38;;;;;;;10.95;9.90;;;15.50;99.90;;;;;;4987086;28;20047;-78
2023/09/23 09:10:05;;;;;;;10.02;9.02;;;15.30;99.90;;;;;;4986650;28;20056;-78
2023/09/23 09:12:32;;;;;;;11.00;9.48;;;15.20;99.90;;;;;;4987489;28;20503;-78
2023/09/23 09:14:57;;;;;;;12.65;10.50;;;15.00;99.90;;;;;;4987165;28;20197;-79
2023/09/23 09:17:23;;;;;;;12.30;10.30;;;15.00;99.90;;;;;;4988126;28;20951;-80
2023/09/23 09:19:49;;;;;;;14.23;11.18;;;15.10;99.90;;;;;;4987325;28;20201;-79
2023/09/23 09:22:19;;;;;;;12.02;10.48;;;15.60;99.90;;;;;;4969736;28;20086;-80
2023/09/23 09:24:46;;;;;;;11.77;10.50;;;15.20;99.90;;;;;;4967535;28;20049;-80
2023/09/23 09:27:14;;;;;;;10.90;9.80;;;15.10;99.90;;;;;;4987891;28;20057;-79
2023/09/23 09:29:43;;;;;;;12.60;10.10;;;14.70;99.90;;;;;;4970689;28;20078;-79
2023/09/23 09:32:10;;;;;;;11.20;9.85;;;15.00;99.90;;;;;;4990864;28;20397;-80
2023/09/23 09:34:46;;;;;;;10.25;9.15;;;15.00;99.90;;;;;;4991360;28;20493;-80
2023/09/23 09:37:13;;;;;;;10.57;9.48;;;15.10;99.90;;;;;;4991041;28;20042;-81
2023/09/23 09:39:50;;;;;;;10.35;8.05;;;15.30;99.90;;;;;;4991456;28;20065;-81
2023/09/23 09:42:23;;;;;;;9.88;8.60;;;15.70;99.90;;;;;;4990273;28;20084;-82
2023/09/23 09:44:54;;;;;;;10.55;8.27;;;16.00;99.90;;;;;;4957265;28;20090;-82
2023/09/23 09:47:21;;;;;;;8.70;7.78;;;16.30;99.90;;;;;;4990795;28;20046;-79
2023/09/23 09:49:50;;;;;;;8.52;7.75;;;16.60;99.90;;;;;;4974410;28;20042;-80
2023/09/23 09:52:22;;;;;;;8.13;7.28;;;16.80;99.90;;;;;;4973784;28;20042;-81
2023/09/23 09:54:53;;;;;;;7.20;6.57;;;17.00;99.90;;;;;;4990855;28;20046;-81
2023/09/23 09:57:23;;;;;;;8.43;5.97;;;17.00;99.90;;;;;;4973958;28;20090;-79
2023/09/23 09:59:52;;;;;;;7.32;6.43;;;16.90;99.90;;;;;;4973105;28;20306;-80
2023/09/23 10:02:18;;;;;;;9.02;6.00;;;17.30;99.90;;;;;;4990950;28;20093;-80
2023/09/23 10:04:49;;;;;;;6.50;5.78;;;16.80;99.90;;;;;;4973415;28;20130;-80
2023/09/23 10:07:16;;;;;;;8.05;5.97;;;16.70;99.90;;;;;;4968598;28;20051;-80
2023/09/23 10:09:55;;;;;;;7.85;6.32;;;16.70;99.90;;;;;;4941029;28;20073;-80
2023/09/23 10:12:31;;;;;;;6.95;5.45;;;16.80;99.90;;;;;;4990427;28;20041;-80
2023/09/23 10:15:07;;;;;;;5.00;4.60;;;16.80;99.90;;;;;;4990666;28;20050;-79
2023/09/23 10:17:37;;;;;;;6.45;5.25;;;16.80;99.90;;;;;;4972027;28;20062;-79
2023/09/23 10:20:12;;;;;;;7.97;5.18;;;16.90;99.90;;;;;;4986133;28;20379;-78
2023/09/23 10:22:38;;;;;;;7.30;4.60;;;16.80;99.90;;;;;;4986902;28;20418;-79
2023/09/23 10:25:06;;;;;;;5.80;4.50;;;16.90;99.90;;;;;;4975661;28;20049;-79
2023/09/23 10:27:36;;;;;;;5.25;4.22;;;17.00;99.90;;;;;;4968191;28;20050;-79
2023/09/23 10:30:03;;;;;;;6.78;4.65;;;17.00;99.90;;;;;;4985938;28;20089;-79
2023/09/23 10:32:29;;;;;;;5.95;4.10;;;17.10;99.90;;;;;;4975312;28;20074;-82
2023/09/23 10:34:58;;;;;;;6.28;4.22;;;17.10;99.90;;;;;;4987109;28;20108;-80
2023/09/23 10:37:29;;;;;;;4.18;3.72;;;17.30;99.90;;;;;;4961524;28;20050;-80
2023/09/23 10:40:12;;;;;;;3.88;3.47;;;17.50;99.90;;;;;;4987105;28;20057;-80
2023/09/23 10:42:41;;;;;;;5.20;3.17;;;17.70;99.90;;;;;;4988183;28;20045;-80
2023/09/23 10:45:11;;;;;;;4.32;2.95;;;17.60;99.90;;;;;;4987670;28;20505;-79
2023/09/23 10:47:37;;;;;;;4.53;2.70;;;18.00;99.90;;;;;;4989424;28;20508;-80
2023/09/23 10:50:06;;;;;;;4.30;2.47;;;18.00;99.90;;;;;;4970665;28;20913;-79
2023/09/23 10:52:37;;;;;;;5.25;2.78;;;18.00;99.90;;;;;;4989408;28;20046;-81
2023/09/23 10:55:04;;;;;;;4.60;2.30;;;18.10;99.90;;;;;;4969651;28;20077;-81
2023/09/23 10:57:31;;;;;;;3.65;2.20;;;18.30;99.90;;;;;;4987940;28;20046;-80
2023/09/23 10:59:57;;;;;;;3.97;2.38;;;18.40;99.90;;;;;;4989246;28;20133;-80
2023/09/23 11:02:25;;;;;;;3.45;2.22;;;18.60;99.90;;;;;;4970314;28;20082;-81
2023/09/23 11:04:54;;;;;;;2.97;2.70;;;18.60;99.90;;;;;;4999179;28;20048;-80
2023/09/23 11:07:22;;;;;;;4.20;2.20;;;18.50;99.90;;;;;;4977476;28;20549;-79
2023/09/23 11:09:48;;;;;;;5.22;1.88;;;18.40;99.90;;;;;;4988032;28;20047;-77
2023/09/23 11:12:20;;;;;;;3.90;2.08;;;18.20;99.90;;;;;;4987097;28;20046;-79
2023/09/23 11:14:46;;;;;;;5.55;2.78;;;18.00;99.90;;;;;;4995247;28;20855;-80
2023/09/23 11:17:32;;;;;;;4.15;2.35;;;17.80;99.90;;;;;;4969986;28;20130;-80
2023/09/23 11:19:59;;;;;;;3.60;2.65;;;17.50;99.90;;;;;;4983424;28;20130;-80
2023/09/23 11:22:26;;;;;;;2.92;2.50;;;17.40;99.90;;;;;;4971871;28;20115;-79
2023/09/23 11:24:53;;;;;;;3.53;2.60;;;17.50;99.90;;;;;;4977537;28;20097;-79
2023/09/23 11:27:20;;;;;;;3.35;2.10;;;17.50;99.90;;;;;;4984884;28;20516;-81
2023/09/23 11:29:46;;;;;;;3.30;2.60;;;17.60;99.90;;;;;;4992313;28;20349;-80
2023/09/23 11:32:11;;;;;;;5.22;2.65;;;17.60;99.90;;;;;;4986200;28;20069;-79
2023/09/23 11:34:37;;;;;;;3.33;2.30;;;17.60;99.90;;;;;;4987740;28;20898;-81
2023/09/23 11:37:03;;;;;;;4.45;2.35;;;17.70;99.90;;;;;;4955170;28;20046;-81
2023/09/23 11:39:35;;;;;;;3.10;2.40;;;17.70;99.90;;;;;;4987321;28;20046;-82
2023/09/23 11:42:02;;;;;;;4.80;2.08;;;17.70;99.90;;;;;;4986720;28;20057;-80
2023/09/23 11:44:30;;;;;;;4.97;2.20;;;17.90;99.90;;;;;;4986821;28;20196;-81
2023/09/23 11:46:56;;;;;;;3.53;2.40;;;18.00;99.90;;;;;;4987068;28;20532;-80
2023/09/23 11:49:22;;;;;;;5.10;2.30;;;18.30;99.90;;;;;;4986416;28;20055;-81
2023/09/23 11:51:47;;;;;;;4.30;1.90;;;18.30;99.90;;;;;;4987610;28;20113;-82
2023/09/23 11:54:14;;;;;;;4.15;2.10;;;18.20;99.90;;;;;;4988075;28;20046;-80
2023/09/23 11:56:40;;;;;;;4.13;1.90;;;18.10;99.90;;;;;;4986407;28;20050;-81
2023/09/23 11:59:09;;;;;;;5.03;2.30;;;18.10;99.90;;;;;;4969633;28;20129;-80
2023/09/23 12:01:35;;;;;;;3.40;1.60;;;18.20;99.90;;;;;;4987982;28;20060;-80
2023/09/23 12:04:01;;;;;;;2.83;1.75;;;18.30;99.90;;;;;;4988229;28;20641;-81
2023/09/23 12:06:27;;;;;;;2.03;1.60;;;18.40;99.90;;;;;;4970877;28;20053;-80
2023/09/23 12:08:53;;;;;;;2.67;1.60;;;18.50;99.90;;;;;;4970554;28;20065;-80
2023/09/23 12:11:21;;;;;;;2.28;1.50;;;18.50;99.90;;;;;;4969233;28;20046;-81
2023/09/23 12:13:52;;;;;;;1.65;1.38;;;18.80;99.90;;;;;;4985623;28;20034;-81
2023/09/23 12:16:18;;;;;;;2.85;1.65;;;18.30;99.90;;;;;;4966702;28;20065;-82
2023/09/23 12:18:47;;;;;;;3.30;1.60;;;18.20;99.90;;;;;;4966925;28;20876;-81
2023/09/23 12:21:16;;;;;;;3.03;1.70;;;18.10;99.90;;;;;;4949117;28;20050;-81
2023/09/23 12:23:41;;;;;;;2.55;1.38;;;17.90;99.90;;;;;;4952952;28;20047;-81
2023/09/23 12:26:09;;;;;;;1.60;1.50;;;17.90;99.90;;;;;;4957880;28;20355;-82
2023/09/23 12:28:38;;;;;;;2.58;1.55;;;17.80;99.90;;;;;;4953617;28;20046;-82
2023/09/23 12:31:04;;;;;;;3.92;1.40;;;17.70;99.90;;;;;;4970104;28;20050;-80
2023/09/23 12:33:30;;;;;;;3.22;1.67;;;17.60;99.90;;;;;;4969942;28;20042;-80
2023/09/23 12:35:56;;;;;;;1.92;1.30;;;17.40;99.90;;;;;;4969776;28;20065;-80
2023/09/23 12:38:21;;;;;;;2.22;1.42;;;17.10;99.90;;;;;;4987829;28;20121;-80
2023/09/23 12:41:07;;;;;;;;;;;;;;;;;;;;;
2023/09/23 12:43:33;;;;;;;3.75;1.77;;;16.80;99.90;;;;;;4986605;28;20053;-81